Time;durP1;ratioP1;P1;durP2;ratioP2;P2;SDS_P1;SDS_P2;PMS_P1;PMS_P2;Temp;Humidity;BMP_temperature;BMP_pressure;BME280_temperature;BME280_humidity;BME280_pressure;Samples;Min_cycle;Max_cycle;Signal;HPM_P1;HPM_P2
2023/10/17 00:02:27;;;;;;;6.70;2.50;;;;;;;-0.40;100.00;98024.69;6234374;28;20708;-92
2023/10/17 00:05:31;;;;;;;3.07;2.50;;;;;;;0.98;100.00;98230.72;6249542;28;20235;-93
2023/10/17 00:08:33;;;;;;;3.07;2.03;;;;;;;1.04;100.00;98235.31;6248415;28;20575;-91
2023/10/17 00:11:58;;;;;;;3.53;2.40;;;;;;;0.36;100.00;98136.94;6247083;28;20237;-92
2023/10/17 00:15:13;;;;;;;3.67;2.03;;;;;;;-0.56;100.00;98008.00;6231774;28;20308;-92
2023/10/17 00:18:24;;;;;;;4.03;2.03;;;;;;;0.69;100.00;98210.28;6228693;28;20207;-92
2023/10/17 00:21:27;;;;;;;2.63;2.37;;;;;;;0.42;100.00;98144.13;6249570;28;20231;-92
2023/10/17 00:24:30;;;;;;;3.33;2.73;;;;;;;-0.74;100.00;97980.34;6241564;28;20244;-92
2023/10/17 00:27:33;;;;;;;4.10;2.40;;;;;;;0.62;100.00;98194.41;6258456;28;20223;-92
2023/10/17 00:30:36;;;;;;;3.97;2.73;;;;;;;-1.04;100.00;97931.13;6261823;28;20241;-92
2023/10/17 00:33:41;;;;;;;4.70;3.00;;;;;;;-0.65;100.00;97993.28;6266106;28;20239;-92
2023/10/17 00:36:48;;;;;;;3.33;2.27;;;;;;;-1.50;100.00;97845.50;6243217;28;20239;-92
2023/10/17 00:39:51;;;;;;;6.00;3.10;;;;;;;-1.32;100.00;97880.97;6251208;28;20239;-91
2023/10/17 00:42:54;;;;;;;6.17;2.83;;;;;;;-0.17;100.00;98066.75;6248408;28;20241;-92
2023/10/17 00:45:56;;;;;;;4.90;3.17;;;;;;;-0.54;100.00;98002.63;6251793;28;20239;-92
2023/10/17 00:48:59;;;;;;;6.33;3.53;;;;;;;-1.02;100.00;97964.97;6223892;28;20231;-93
2023/10/17 00:52:15;;;;;;;4.03;2.90;;;;;;;-0.67;100.00;98008.34;6231274;28;20239;-93
2023/10/17 00:55:18;;;;;;;4.10;3.10;;;;;;;0.08;100.00;98110.25;6237201;28;20235;-90
2023/10/17 00:58:27;;;;;;;3.23;2.60;;;;;;;-0.67;100.00;97976.94;6237036;28;20241;-90
2023/10/17 01:01:32;;;;;;;3.73;3.00;;;;;;;0.56;100.00;98171.47;6235257;28;20239;-91
2023/10/17 01:04:40;;;;;;;4.20;3.13;;;;;;;0.81;100.00;98205.53;6237259;28;20218;-91
2023/10/17 01:07:45;;;;;;;4.67;3.60;;;;;;;0.81;100.00;98208.97;6234937;28;20230;-92
2023/10/17 01:10:47;;;;;;;5.00;3.37;;;;;;;-0.80;100.00;97963.53;6239492;28;20242;-91
2023/10/17 01:13:52;;;;;;;4.70;3.60;;;;;;;0.40;100.00;98145.31;6256031;28;20241;-90
2023/10/17 01:16:56;;;;;;;7.23;3.43;;;;;;;-0.61;100.00;97988.56;6241058;28;20271;-90
2023/10/17 01:20:07;;;;;;;5.40;3.43;;;;;;;-0.36;100.00;98018.16;6237764;28;20230;-90
2023/10/17 01:23:10;;;;;;;5.37;3.70;;;;;;;-0.67;100.00;97973.50;6240637;28;20242;-90
2023/10/17 01:26:23;;;;;;;4.93;3.20;;;;;;;-0.33;100.00;98018.66;6241625;28;20227;-91
2023/10/17 01:29:26;;;;;;;4.10;3.03;;;;;;;0.42;100.00;98136.28;6225925;28;20742;-91
2023/10/17 01:32:29;;;;;;;6.23;3.33;;;;;;;0.61;100.00;98150.81;6240659;28;20237;-90
2023/10/17 01:35:33;;;;;;;4.90;2.93;;;;;;;0.47;100.00;98141.84;6199678;28;20231;-90
2023/10/17 01:38:36;;;;;;;5.97;3.40;;;;;;;-0.06;100.00;98063.78;6203627;28;20603;-90
2023/10/17 01:41:38;;;;;;;5.37;3.47;;;;;;;-0.56;100.00;97973.19;6217218;28;20259;-90
2023/10/17 01:44:41;;;;;;;4.10;3.47;;;;;;;-0.54;100.00;98011.28;6209870;28;20639;-90
2023/10/17 01:47:43;;;;;;;3.70;3.03;;;;;;;-0.58;100.00;97962.06;6206345;28;20233;-90
2023/10/17 01:50:46;;;;;;;7.20;3.70;;;;;;;0.40;100.00;98112.03;6220458;28;20385;-91
2023/10/17 01:53:50;;;;;;;10.47;4.03;;;;;;;0.92;100.00;98189.44;6229276;28;20227;-91
2023/10/17 01:57:04;;;;;;;4.37;3.23;;;;;;;-0.49;100.00;97968.09;6213486;28;20224;-90
2023/10/17 02:03:46;;;;;;;6.30;3.60;;;;;;;-0.58;100.00;97967.31;6195895;28;20238;-90
2023/10/17 02:06:50;;;;;;;5.27;3.77;;;;;;;0.54;100.00;98138.53;6180611;28;20247;-94
2023/10/17 02:09:55;;;;;;;5.23;3.73;;;;;;;0.53;100.00;98150.81;6188304;28;20236;-94
2023/10/17 02:12:59;;;;;;;3.80;3.23;;;;;;;0.34;100.00;98114.50;6197662;28;20256;-95
2023/10/17 02:16:02;;;;;;;6.20;3.97;;;;;;;0.73;100.00;98173.06;6178755;28;20348;-95
2023/10/17 02:19:08;;;;;;;4.27;3.60;;;;;;;0.82;100.00;98188.81;6176396;28;20236;-94
2023/10/17 02:22:11;;;;;;;5.27;3.73;;;;;;;0.57;100.00;98153.94;6162999;28;20320;-94
2023/10/17 02:25:15;;;;;;;4.57;3.43;;;;;;;0.46;100.00;98147.25;6195556;28;20232;-94
2023/10/17 02:28:46;;;;;;;5.80;4.07;;;;;;;0.73;100.00;98182.75;6178718;28;20241;-94
2023/10/17 02:31:53;;;;;;;4.50;3.43;;;;;;;-0.75;100.00;97945.53;6195633;28;20240;-94
2023/10/17 02:34:55;;;;;;;5.07;3.43;;;;;;;0.15;100.00;98087.69;6188324;28;20230;-95
2023/10/17 02:37:59;;;;;;;4.70;3.20;;;;;;;0.35;100.00;98109.09;6200588;28;20735;-94
2023/10/17 02:41:01;;;;;;;6.33;3.63;;;;;;;0.10;100.00;98053.31;6240922;28;20226;-94
2023/10/17 02:44:04;;;;;;;4.97;3.53;;;;;;;0.64;100.00;98140.03;6235225;28;20230;-95
2023/10/17 02:47:12;;;;;;;4.57;3.07;;;;;;;0.40;100.00;98106.00;6225537;28;20238;-94
2023/10/17 02:53:34;;;;;;;5.30;4.43;;;;;;;0.13;100.00;98073.09;6242829;28;20681;-95
2023/10/17 02:56:51;;;;;;;4.87;3.67;;;;;;;-0.39;100.00;98008.03;6241701;28;20235;-94
2023/10/17 02:59:57;;;;;;;6.37;4.27;;;;;;;0.04;100.00;98102.91;6225148;28;20235;-95
2023/10/17 03:03:00;;;;;;;5.07;3.40;;;;;;;0.17;100.00;98095.38;6236721;28;20235;-94
2023/10/17 03:06:05;;;;;;;6.80;3.50;;;;;;;0.34;100.00;98128.41;6224848;28;20232;-94
2023/10/17 03:09:34;;;;;;;7.77;4.03;;;;;;;-1.65;100.00;97808.75;6222432;28;20694;-94
2023/10/17 03:12:50;;;;;;;4.97;4.07;;;;;;;0.02;100.00;98095.22;6225815;28;20233;-94
2023/10/17 03:15:57;;;;;;;5.77;4.10;;;;;;;-1.06;100.00;97943.56;6225500;28;20227;-93
2023/10/17 03:18:59;;;;;;;4.97;3.67;;;;;;;-0.69;100.00;98019.94;6245750;28;20235;-92
2023/10/17 03:25:46;;;;;;;6.53;3.87;;;;;;;-1.26;100.00;97936.19;6165823;28;20270;-93
2023/10/17 03:28:50;;;;;;;4.90;4.17;;;;;;;-0.02;100.00;98120.91;6163842;28;20216;-92
2023/10/17 03:31:58;;;;;;;6.33;4.60;;;;;;;-0.85;100.00;98015.50;6148588;28;20249;-92
2023/10/17 03:35:03;;;;;;;5.43;4.40;;;;;;;0.26;100.00;98186.09;6151840;28;20294;-92
2023/10/17 03:38:08;;;;;;;7.23;4.13;;;;;;;-1.38;100.00;97938.25;6145893;28;20214;-92
2023/10/17 03:41:17;;;;;;;6.77;4.30;;;;;;;-0.54;100.00;98053.16;6165066;28;20234;-93
2023/10/17 03:44:22;;;;;;;5.27;3.73;;;;;;;-0.29;100.00;98103.72;6131677;28;20271;-93
2023/10/17 03:47:26;;;;;;;4.23;3.50;;;;;;;-0.51;100.00;98065.09;6147503;28;20219;-93
2023/10/17 03:50:31;;;;;;;6.37;4.30;;;;;;;-1.15;100.00;97956.78;6143252;28;20309;-92
2023/10/17 03:53:42;;;;;;;5.13;3.80;;;;;;;-0.88;100.00;98000.16;6137183;29;20234;-93
2023/10/17 03:56:45;;;;;;;7.43;4.40;;;;;;;-0.74;100.00;98001.28;6120247;29;20273;-93
2023/10/17 03:59:55;;;;;;;5.30;4.37;;;;;;;-0.05;100.00;98130.88;6177777;28;20227;-92
2023/10/17 04:02:58;;;;;;;6.37;4.43;;;;;;;-1.35;100.00;97930.13;6233505;28;20235;-93
2023/10/17 04:06:18;;;;;;;8.17;4.10;;;;;;;-2.06;100.00;97811.28;6219670;28;20230;-93
2023/10/17 04:09:27;;;;;;;6.97;4.23;;;;;;;-1.24;100.00;97947.28;6220224;28;20203;-93
2023/10/17 04:12:48;;;;;;;4.53;3.97;;;;;;;-1.40;100.00;97955.91;6237003;28;20246;-93
2023/10/17 04:15:50;;;;;;;6.47;4.63;;;;;;;-0.24;100.00;98118.94;6222607;28;20231;-92
2023/10/17 04:19:00;;;;;;;5.60;4.03;;;;;;;-1.08;100.00;97994.41;6233849;28;20567;-93
2023/10/17 04:22:07;;;;;;;7.03;5.17;;;;;;;-1.69;100.00;97951.06;6237112;28;20327;-93
2023/10/17 04:25:34;;;;;;;6.80;5.03;;;;;;;-0.22;100.00;98140.53;6224211;28;20227;-93
2023/10/17 04:28:41;;;;;;;6.30;4.57;;;;;;;-1.03;100.00;98007.81;6239355;28;20227;-94
2023/10/17 04:31:44;;;;;;;5.17;4.47;;;;;;;-2.51;100.00;97762.03;6222999;28;20314;-95
2023/10/17 04:34:49;;;;;;;6.20;4.80;;;;;;;-1.94;100.00;97866.63;6224812;28;20745;-94
2023/10/17 04:45:05;;;;;;;5.93;4.63;;;;;;;-0.83;100.00;98069.28;6157965;28;20250;-95
2023/10/17 04:48:11;;;;;;;7.87;4.67;;;;;;;-0.38;100.00;98125.63;6123181;29;20222;-95
2023/10/17 04:54:30;;;;;;;5.53;4.23;;;;;;;-1.82;100.00;97892.28;6145759;28;21766;-94
2023/10/17 05:04:31;;;;;;;7.20;4.90;;;;;;;-1.31;100.00;98000.19;6160440;28;20609;-95
2023/10/17 06:18:01;;;;;;;8.17;5.67;;;;;;;-0.74;100.00;98022.22;6243153;28;20329;-94
2023/10/17 06:24:06;;;;;;;8.07;6.53;;;;;;;-1.32;100.00;97943.69;6259614;28;20226;-94
2023/10/17 06:30:47;;;;;;;9.70;6.43;;;;;;;0.42;100.00;98180.00;6258760;28;20219;-93
2023/10/17 06:33:55;;;;;;;8.67;6.37;;;;;;;-0.61;100.00;98010.28;6271391;28;20241;-93
2023/10/17 06:36:59;;;;;;;7.87;6.33;;;;;;;-0.93;100.00;97965.81;6266215;28;20215;-93
2023/10/17 06:40:12;;;;;;;10.17;6.80;;;;;;;-0.58;100.00;97991.66;6265657;28;20234;-94
2023/10/17 06:43:27;;;;;;;10.00;7.20;;;;;;;0.40;100.00;98163.66;6265884;28;20231;-93
2023/10/17 06:46:30;;;;;;;11.20;7.73;;;;;;;-0.53;100.00;97985.94;6238858;28;20244;-93
2023/10/17 06:55:58;;;;;;;9.73;7.03;;;;;;;0.13;100.00;98041.66;6239737;28;20242;-92
2023/10/17 06:59:04;;;;;;;11.53;8.47;;;;;;;0.95;100.00;98160.25;6238566;28;20222;-93
2023/10/17 07:02:16;;;;;;;11.67;8.47;;;;;;;1.08;100.00;98115.09;6240131;28;20246;-92
2023/10/17 07:05:21;;;;;;;10.67;7.77;;;;;;;1.38;100.00;98139.72;6230390;28;20232;-92
2023/10/17 07:08:30;;;;;;;11.07;8.40;;;;;;;0.89;100.00;98041.09;6240414;28;20712;-94
2023/10/17 07:11:36;;;;;;;11.27;8.50;;;;;;;-0.17;100.00;97804.94;6242713;28;20237;-94
2023/10/17 07:14:40;;;;;;;13.17;9.93;;;;;;;1.57;100.00;98055.28;6242183;28;20233;-96
2023/10/17 07:24:17;;;;;;;12.73;9.83;;;;;;;2.83;100.00;98176.41;6238686;28;20241;-94
2023/10/17 07:27:19;;;;;;;13.20;10.00;;;;;;;0.76;100.00;97833.69;6233799;28;20218;-94
2023/10/17 07:30:34;;;;;;;13.97;9.80;;;;;;;2.04;100.00;98031.41;6221105;28;20642;-94
2023/10/17 07:33:38;;;;;;;9.87;8.20;;;;;;;2.18;100.00;98042.13;6239724;28;20230;-92
2023/10/17 07:36:43;;;;;;;11.13;8.87;;;;;;;3.14;100.00;98195.66;6228546;28;20226;-92
2023/10/17 07:43:07;;;;;;;12.70;10.47;;;;;;;1.23;100.00;97830.84;6248668;28;20234;-93
2023/10/17 07:46:18;;;;;;;13.40;9.33;;;;;;;2.80;100.00;98042.56;6225182;28;20219;-95
2023/10/17 07:49:26;;;;;;;11.33;8.27;;;;;;;2.67;100.00;98018.75;6240202;28;20236;-92
2023/10/17 07:52:31;;;;;;;9.27;7.07;;;;;;;1.61;100.00;97830.75;6215306;28;20289;-93
2023/10/17 07:55:46;;;;;;;13.80;8.13;;;;;;;1.46;100.00;97817.63;6235719;28;20250;-94
2023/10/17 07:59:33;;;;;;;9.63;7.63;;;;;;;3.59;100.00;98097.16;6248503;28;20223;-93
2023/10/17 08:02:40;;;;;;;8.93;6.67;;;;;;;3.20;100.00;98050.97;6237458;28;20301;-93
2023/10/17 08:06:04;;;;;;;6.97;6.23;;;;;;;4.24;100.00;98164.72;6219029;28;20231;-93
2023/10/17 08:12:42;;;;;;;10.83;6.30;;;;;;;3.09;100.00;97962.75;6201603;28;20338;-95
2023/10/17 08:15:54;;;;;;;9.07;6.33;;;;;;;2.24;100.00;97797.78;6167744;28;20229;-96
2023/10/17 08:19:15;;;;;;;6.77;5.80;;;;;;;2.44;100.00;97811.13;6168344;28;20356;-96
2023/10/17 08:22:25;;;;;;;7.73;5.70;;;;;;;3.56;100.00;97950.03;6174422;28;20334;-96
2023/10/17 08:25:30;;;;;;;9.20;6.00;;;;;;;2.89;100.00;97803.88;6158680;28;20231;-95
2023/10/17 08:31:50;;;;;;;6.17;5.27;;;;;;;4.48;100.00;98036.03;6192221;28;20760;-96
2023/10/17 08:34:57;;;;;;;5.87;4.43;;;;;;;5.48;96.95;98172.81;6176681;28;20417;-96
2023/10/17 08:38:06;;;;;;;7.27;4.87;;;;;;;3.48;91.16;97885.13;6161400;28;20263;-96
2023/10/17 08:41:09;;;;;;;7.90;4.63;;;;;;;4.15;91.09;97933.81;6165386;28;20260;-96
2023/10/17 08:44:19;;;;;;;6.23;4.70;;;;;;;3.47;90.98;97841.38;6158458;28;20234;-96
2023/10/17 08:47:25;;;;;;;7.27;4.90;;;;;;;5.12;88.32;98070.03;6159666;28;20237;-96
2023/10/17 08:50:37;;;;;;;5.93;4.30;;;;;;;4.65;88.81;97992.50;6206442;28;20244;-96
2023/10/17 08:53:45;;;;;;;5.67;4.07;;;;;;;3.75;87.64;97822.91;6216815;28;20241;-96
2023/10/17 08:56:59;;;;;;;6.17;4.23;;;;;;;5.19;90.18;98052.41;6236442;28;20215;-95
2023/10/17 09:03:31;;;;;;;5.80;4.67;;;;;;;6.76;87.56;98202.00;6249483;28;20308;-96
2023/10/17 09:06:49;;;;;;;5.47;4.30;;;;;;;6.15;85.45;98083.91;6228759;28;20341;-93
2023/10/17 09:09:55;;;;;;;6.63;4.63;;;;;;;5.72;87.22;97972.44;6228039;28;20729;-94
2023/10/17 09:16:23;;;;;;;5.30;4.37;;;;;;;6.57;84.82;98040.31;6251207;28;20245;-93
2023/10/17 09:19:26;;;;;;;6.90;4.13;;;;;;;6.36;83.45;97980.53;6243879;28;20240;-94
2023/10/17 09:22:29;;;;;;;5.43;3.90;;;;;;;6.71;83.05;98035.81;6242910;28;20321;-95
2023/10/17 09:25:32;;;;;;;5.67;4.50;;;;;;;6.65;81.16;97978.38;6225984;28;20238;-96
2023/10/17 09:28:35;;;;;;;5.03;4.03;;;;;;;6.81;80.49;98038.03;6241062;28;20231;-96
2023/10/17 09:31:43;;;;;;;5.50;3.73;;;;;;;5.69;81.87;97823.00;6208432;28;20273;-96
2023/10/17 09:34:50;;;;;;;4.73;3.77;;;;;;;6.56;82.80;97982.31;6227641;28;20603;-93
2023/10/17 09:37:56;;;;;;;5.90;4.23;;;;;;;6.43;77.15;97846.34;6241892;28;20648;-94
2023/10/17 09:40:59;;;;;;;4.97;3.63;;;;;;;6.82;78.55;97952.28;6226286;28;20242;-94
2023/10/17 09:44:17;;;;;;;4.93;3.53;;;;;;;7.09;76.91;97964.34;6227955;28;20223;-96
2023/10/17 09:47:25;;;;;;;3.43;3.10;;;;;;;6.98;79.89;97933.22;6238300;28;20224;-96
2023/10/17 09:50:28;;;;;;;3.70;2.73;;;;;;;6.86;79.56;97895.22;6209060;28;20289;-96
2023/10/17 09:53:34;;;;;;;5.10;2.70;;;;;;;6.40;77.49;97803.63;6225704;28;20240;-96
2023/10/17 09:56:42;;;;;;;5.87;3.37;;;;;;;8.73;79.79;98130.50;6224099;28;20230;-95
2023/10/17 10:00:14;;;;;;;4.60;3.17;;;;;;;7.13;72.43;97858.75;6221272;28;20223;-96
2023/10/17 10:03:20;;;;;;;3.33;2.70;;;;;;;8.03;75.12;97981.22;6228511;28;20274;-96
2023/10/17 10:06:26;;;;;;;3.60;2.83;;;;;;;7.49;73.58;97897.84;6224705;28;20234;-93
2023/10/17 10:09:36;;;;;;;5.70;3.30;;;;;;;7.95;70.59;97961.09;6213042;28;20232;-94
2023/10/17 10:13:01;;;;;;;3.20;2.70;;;;;;;7.22;70.92;97871.53;6241947;28;20235;-95
2023/10/17 10:16:08;;;;;;;6.17;2.47;;;;;;;9.06;71.65;98124.03;6237276;28;20314;-92
2023/10/17 10:19:11;;;;;;;5.83;3.40;;;;;;;7.91;70.44;97914.00;6228138;28;20771;-92
2023/10/17 10:22:18;;;;;;;3.43;2.87;;;;;;;9.13;68.62;98106.19;6226189;28;20223;-92
2023/10/17 10:25:22;;;;;;;3.50;2.60;;;;;;;9.14;70.41;98110.44;6228275;28;20236;-92
2023/10/17 10:28:31;;;;;;;3.73;2.80;;;;;;;9.50;67.89;98100.81;6222413;28;20228;-93
2023/10/17 10:31:34;;;;;;;3.70;2.60;;;;;;;9.27;68.92;98101.53;6223824;28;20226;-92
2023/10/17 10:34:37;;;;;;;3.30;2.70;;;;;;;8.19;69.43;97927.59;6227547;28;20235;-92
2023/10/17 10:37:54;;;;;;;3.07;2.50;;;;;;;8.52;70.98;97976.88;6228571;28;20229;-92
2023/10/17 10:41:06;;;;;;;4.10;2.80;;;;;;;8.73;70.43;97987.06;6226853;28;20236;-91
2023/10/17 10:44:08;;;;;;;3.93;2.50;;;;;;;9.39;70.84;98080.31;6220193;28;20238;-94
2023/10/17 10:47:13;;;;;;;2.83;2.27;;;;;;;7.24;69.21;97742.31;6253250;28;20317;-92
2023/10/17 10:50:16;;;;;;;4.60;2.23;;;;;;;8.23;68.50;97909.38;6233107;28;20242;-93
2023/10/17 10:53:33;;;;;;;3.30;2.57;;;;;;;8.80;69.42;97976.34;6231536;28;20594;-93
2023/10/17 10:56:37;;;;;;;3.07;2.13;;;;;;;8.69;70.33;97942.59;6234776;28;20571;-93
2023/10/17 10:59:49;;;;;;;3.87;2.53;;;;;;;9.68;68.83;98054.75;6249171;28;20225;-91
2023/10/17 11:02:53;;;;;;;3.57;2.50;;;;;;;7.49;66.96;97710.47;6228392;28;20260;-92
2023/10/17 11:05:58;;;;;;;2.80;1.93;;;;;;;9.74;68.83;98107.84;6226521;28;20233;-92
2023/10/17 11:09:01;;;;;;;3.43;2.30;;;;;;;8.58;68.27;97900.84;6217890;28;20237;-93
2023/10/17 11:12:04;;;;;;;3.73;1.80;;;;;;;7.85;68.43;97740.63;6219212;28;20293;-93
2023/10/17 11:15:18;;;;;;;2.70;1.83;;;;;;;9.15;67.36;97957.91;6202917;28;20226;-93
2023/10/17 11:18:21;;;;;;;3.93;1.80;;;;;;;8.28;65.87;97774.19;6217774;28;20209;-93
2023/10/17 11:21:24;;;;;;;4.97;1.80;;;;;;;8.34;67.41;97783.09;6189335;28;20226;-93
2023/10/17 11:24:29;;;;;;;2.43;1.47;;;;;;;8.58;68.18;97842.44;6188945;28;20308;-96
2023/10/17 11:27:33;;;;;;;2.10;1.60;;;;;;;7.92;69.17;97736.03;6203299;28;20221;-96
2023/10/17 11:30:40;;;;;;;1.97;1.70;;;;;;;9.26;68.30;97911.97;6203050;28;20223;-96
2023/10/17 11:33:47;;;;;;;4.43;2.43;;;;;;;7.91;66.72;97718.50;6191176;28;20321;-96
2023/10/17 11:37:02;;;;;;;3.67;2.00;;;;;;;10.38;64.80;98065.56;6240326;28;20194;-96
2023/10/17 11:40:28;;;;;;;3.13;1.80;;;;;;;8.15;65.26;97716.78;6243302;28;20248;-96
2023/10/17 11:43:42;;;;;;;2.93;2.10;;;;;;;9.48;63.10;97892.81;6227082;28;20244;-96
2023/10/17 11:47:23;;;;;;;2.20;2.00;;;;;;;9.50;65.03;97930.63;6247471;28;20287;-96
2023/10/17 11:50:34;;;;;;;5.40;2.00;;;;;;;8.66;63.06;97787.13;6247950;28;20545;-96
2023/10/17 11:54:07;;;;;;;1.97;1.73;;;;;;;10.39;63.57;98032.56;6226581;28;20594;-96
2023/10/17 11:57:33;;;;;;;4.57;2.07;;;;;;;8.45;64.27;97697.41;6205803;28;20230;-96
2023/10/17 12:00:39;;;;;;;3.63;1.60;;;;;;;10.53;64.80;98028.63;6203672;28;20234;-96
2023/10/17 12:04:16;;;;;;;2.23;1.80;;;;;;;10.55;62.47;98020.41;6204370;28;20294;-96
2023/10/17 12:07:22;;;;;;;3.57;1.67;;;;;;;8.27;61.63;97691.09;6195688;28;20341;-96
2023/10/17 12:14:37;;;;;;;;;;;;;;;;;;;;;
2023/10/17 12:17:50;;;;;;;2.50;1.40;;;;;;;10.56;59.70;98006.84;6181169;23;20337;-43
2023/10/17 12:20:55;;;;;;;3.40;1.30;;;;;;;10.68;60.56;98006.00;6224685;28;20230;-42
2023/10/17 12:23:57;;;;;;;2.87;0.93;;;;;;;10.68;59.26;98000.69;6227914;28;20248;-44
2023/10/17 12:27:03;;;;;;;1.07;0.90;;;;;;;10.68;58.48;97998.03;6227444;28;20245;-43
2023/10/17 12:30:09;;;;;;;1.47;0.73;;;;;;;10.76;62.43;97997.66;6227704;28;20270;-44
2023/10/17 12:33:11;;;;;;;1.17;0.70;;;;;;;10.96;55.31;97990.09;6227751;28;20228;-44
2023/10/17 12:36:14;;;;;;;1.20;0.93;;;;;;;10.69;56.63;97999.63;6228134;28;20302;-43
2023/10/17 12:39:19;;;;;;;1.43;0.70;;;;;;;10.63;56.02;97985.41;6226049;28;20226;-43
2023/10/17 12:42:24;;;;;;;1.20;0.77;;;;;;;10.71;57.65;97986.91;6223732;28;20719;-43
2023/10/17 12:45:26;;;;;;;2.20;0.97;;;;;;;10.67;55.55;97983.09;6226625;28;20626;-42
2023/10/17 12:48:28;;;;;;;1.37;0.67;;;;;;;10.57;57.30;97973.81;6225592;28;20222;-46
2023/10/17 12:51:30;;;;;;;1.03;0.77;;;;;;;10.70;56.42;97986.09;6230174;28;20227;-43
2023/10/17 12:54:34;;;;;;;1.17;0.70;;;;;;;10.75;56.25;97982.72;6226232;28;20230;-42
2023/10/17 12:57:38;;;;;;;1.20;0.90;;;;;;;10.70;55.01;97986.09;6225399;28;20340;-43
2023/10/17 13:00:42;;;;;;;1.47;0.90;;;;;;;10.68;56.53;97982.84;6224652;28;20229;-42
2023/10/17 13:03:44;;;;;;;1.10;0.70;;;;;;;10.71;54.98;97981.56;6225754;28;20300;-43
2023/10/17 13:06:48;;;;;;;3.90;0.90;;;;;;;10.70;53.50;97979.97;6209916;28;20614;-42
2023/10/17 13:09:50;;;;;;;1.30;0.90;;;;;;;10.63;53.24;97966.75;6226930;28;20277;-43
2023/10/17 13:12:52;;;;;;;2.23;0.87;;;;;;;10.72;53.74;97967.19;6231711;28;20235;-43
2023/10/17 13:15:57;;;;;;;2.00;0.77;;;;;;;10.73;52.60;97966.97;6231527;28;20239;-42
2023/10/17 13:19:06;;;;;;;0.73;0.63;;;;;;;10.65;53.93;97942.56;6231298;28;20279;-43
2023/10/17 13:22:14;;;;;;;1.47;0.90;;;;;;;10.74;54.59;97957.13;6228990;28;20238;-44
2023/10/17 13:25:19;;;;;;;4.13;0.80;;;;;;;10.77;54.76;97962.78;6231967;28;20329;-43
2023/10/17 13:28:21;;;;;;;3.27;0.70;;;;;;;10.74;52.04;97957.94;6228295;28;20238;-42
2023/10/17 13:31:24;;;;;;;0.83;0.83;;;;;;;10.74;53.41;97957.94;6230641;28;20238;-45
2023/10/17 13:34:28;;;;;;;1.80;0.83;;;;;;;10.75;53.79;97966.75;6229106;28;20231;-42
2023/10/17 13:37:30;;;;;;;2.37;0.97;;;;;;;10.73;52.87;97963.50;6213459;28;20235;-43
2023/10/17 13:40:33;;;;;;;1.77;0.87;;;;;;;10.67;54.04;97965.25;6231889;28;20223;-43
2023/10/17 13:43:36;;;;;;;2.27;1.00;;;;;;;10.65;55.01;97959.34;6230968;28;20239;-42
2023/10/17 13:46:39;;;;;;;4.20;0.83;;;;;;;10.65;55.87;97969.19;6227070;28;20325;-44
2023/10/17 13:49:41;;;;;;;1.00;0.83;;;;;;;10.52;56.37;97944.41;6230949;28;20323;-43
2023/10/17 13:52:43;;;;;;;1.43;0.97;;;;;;;10.59;52.43;97957.63;6230611;28;20235;-42
2023/10/17 13:55:45;;;;;;;1.07;0.80;;;;;;;10.57;52.33;97965.84;6230601;28;20242;-44
2023/10/17 13:58:49;;;;;;;1.60;0.73;;;;;;;10.57;51.66;97960.50;6226928;28;20753;-45
2023/10/17 14:01:52;;;;;;;3.00;0.70;;;;;;;10.54;52.15;97960.16;6230502;28;20714;-41
2023/10/17 14:04:54;;;;;;;2.77;0.90;;;;;;;10.53;51.90;97953.22;6221142;28;20696;-42
2023/10/17 14:07:57;;;;;;;2.93;0.90;;;;;;;10.53;52.30;97958.56;6213458;28;20226;-42
2023/10/17 14:11:06;;;;;;;2.70;1.20;;;;;;;10.46;52.49;97948.03;6225788;28;20231;-42
2023/10/17 14:14:10;;;;;;;1.30;0.93;;;;;;;10.54;54.53;97965.50;6231138;28;20234;-45
2023/10/17 14:17:13;;;;;;;2.87;0.93;;;;;;;10.48;53.23;97969.09;6231912;28;20266;-42
2023/10/17 14:20:17;;;;;;;2.43;0.87;;;;;;;10.48;53.34;97961.09;6253345;28;20319;-50
2023/10/17 14:23:26;;;;;;;0.60;0.60;;;;;;;10.50;54.34;97964.38;6254668;28;20318;-42
2023/10/17 14:26:29;;;;;;;1.40;0.70;;;;;;;10.48;54.43;97967.25;6247507;28;20383;-45
2023/10/17 14:29:31;;;;;;;1.03;0.70;;;;;;;10.45;56.06;97970.38;6252515;28;20237;-42
2023/10/17 14:32:35;;;;;;;2.87;0.80;;;;;;;10.35;55.94;97980.81;6252895;28;20300;-41
2023/10/17 14:35:37;;;;;;;1.53;0.80;;;;;;;10.29;57.13;97968.41;6254610;28;20222;-41
2023/10/17 14:38:39;;;;;;;3.17;0.80;;;;;;;10.28;57.96;97972.94;6249372;28;20316;-41
2023/10/17 14:41:42;;;;;;;1.07;0.83;;;;;;;10.22;58.74;97968.50;6253119;28;20644;-42
2023/10/17 14:44:51;;;;;;;0.87;0.70;;;;;;;10.19;56.56;97968.16;6253147;28;20317;-43
2023/10/17 14:47:55;;;;;;;1.83;0.60;;;;;;;10.21;56.25;97960.75;6251413;28;20233;-43
2023/10/17 14:51:01;;;;;;;1.73;1.00;;;;;;;10.22;56.60;97959.72;6253827;28;20650;-40
2023/10/17 14:54:08;;;;;;;2.20;0.70;;;;;;;10.12;56.95;97948.84;6252843;28;20253;-43
2023/10/17 14:57:13;;;;;;;0.97;0.77;;;;;;;10.19;53.18;97953.00;6252016;28;20275;-41
2023/10/17 15:00:16;;;;;;;1.73;1.00;;;;;;;10.16;54.64;97950.81;6252781;28;20307;-43
2023/10/17 15:03:19;;;;;;;2.53;1.10;;;;;;;10.13;54.95;97951.25;6252416;28;20623;-42
2023/10/17 15:06:22;;;;;;;2.50;1.00;;;;;;;10.11;55.61;97950.69;6253344;28;20234;-42
2023/10/17 15:09:27;;;;;;;1.37;0.80;;;;;;;10.02;58.04;97949.41;6253796;28;20252;-43
2023/10/17 15:12:30;;;;;;;1.07;0.80;;;;;;;9.96;57.50;97953.00;6251465;28;20332;-42
2023/10/17 15:15:33;;;;;;;3.13;1.03;;;;;;;9.89;58.22;97957.63;6253666;28;20228;-42
2023/10/17 15:18:35;;;;;;;1.27;0.80;;;;;;;9.85;58.68;97956.44;6242570;28;20740;-43
2023/10/17 15:21:37;;;;;;;1.97;1.17;;;;;;;9.75;56.73;97960.53;6229761;28;20367;-41
2023/10/17 15:24:40;;;;;;;1.00;0.80;;;;;;;9.71;57.50;97956.69;6226477;28;20226;-42
2023/10/17 15:27:42;;;;;;;2.73;0.90;;;;;;;9.63;58.31;97959.69;6227331;28;20227;-41
2023/10/17 15:30:45;;;;;;;0.90;0.67;;;;;;;9.59;59.16;97952.38;6228549;28;20242;-41
2023/10/17 15:33:49;;;;;;;2.33;0.90;;;;;;;9.48;59.84;97944.16;6229758;28;20269;-42
2023/10/17 15:36:52;;;;;;;1.87;1.00;;;;;;;9.39;61.10;97940.19;6225549;28;20261;-41
2023/10/17 15:39:55;;;;;;;1.73;0.70;;;;;;;9.32;61.32;97942.16;6228134;28;20884;-41
2023/10/17 15:42:57;;;;;;;1.10;0.80;;;;;;;9.24;62.26;97950.44;6210858;28;20232;-42
2023/10/17 15:46:00;;;;;;;2.93;0.80;;;;;;;9.16;63.58;97940.94;6227509;28;20724;-42
2023/10/17 15:49:03;;;;;;;2.43;0.77;;;;;;;8.98;63.18;97955.09;6228132;28;20244;-40
2023/10/17 15:52:06;;;;;;;2.50;1.00;;;;;;;8.90;64.91;97959.88;6227288;28;20725;-41
2023/10/17 15:55:09;;;;;;;2.50;0.70;;;;;;;8.76;66.21;97962.69;6229743;28;20225;-42
2023/10/17 15:58:12;;;;;;;1.00;0.80;;;;;;;8.69;66.75;97959.31;6208247;28;20259;-42
2023/10/17 16:01:14;;;;;;;0.90;0.63;;;;;;;8.66;67.39;97961.59;6227343;28;20228;-43
2023/10/17 16:04:17;;;;;;;1.23;0.80;;;;;;;8.57;68.70;97966.44;6227574;28;20278;-42
2023/10/17 16:07:20;;;;;;;0.90;0.80;;;;;;;8.43;68.55;97962.28;6224729;28;20241;-42
2023/10/17 16:10:25;;;;;;;1.17;0.80;;;;;;;8.13;69.44;97935.63;6228482;28;20242;-42
2023/10/17 16:13:27;;;;;;;1.47;0.70;;;;;;;8.21;69.28;97961.84;6196632;28;20241;-42
2023/10/17 16:16:31;;;;;;;1.17;0.80;;;;;;;8.16;69.76;97959.06;6227340;28;20227;-43
2023/10/17 16:19:34;;;;;;;1.10;0.80;;;;;;;8.07;69.96;97944.44;6245290;28;20238;-43
2023/10/17 16:22:37;;;;;;;0.93;0.80;;;;;;;7.95;70.58;97937.22;6252130;28;20238;-42
2023/10/17 16:25:46;;;;;;;0.80;0.80;;;;;;;7.97;71.20;97955.56;6250134;28;20318;-43
2023/10/17 16:28:54;;;;;;;1.37;0.80;;;;;;;7.88;71.43;97955.03;6251919;28;20228;-43
2023/10/17 16:32:00;;;;;;;0.90;0.70;;;;;;;7.83;70.57;97954.88;6250818;28;20230;-46
2023/10/17 16:35:04;;;;;;;1.00;0.80;;;;;;;7.53;71.07;97928.19;6237017;28;20252;-42
2023/10/17 16:38:09;;;;;;;1.50;0.80;;;;;;;7.72;72.09;97968.81;6254525;28;20227;-42
2023/10/17 16:41:13;;;;;;;2.50;1.00;;;;;;;7.76;73.64;97970.81;6253266;28;20478;-41
2023/10/17 16:44:17;;;;;;;1.20;0.90;;;;;;;7.74;73.40;97964.13;6259135;28;20611;-42
2023/10/17 16:47:24;;;;;;;1.20;0.70;;;;;;;7.61;74.13;97946.47;6256546;28;20238;-43
2023/10/17 16:50:27;;;;;;;1.33;0.80;;;;;;;7.67;74.41;97963.34;6256814;28;20270;-41
2023/10/17 16:53:30;;;;;;;2.00;0.80;;;;;;;7.61;75.06;97954.44;6255141;28;20226;-43
2023/10/17 16:56:33;;;;;;;1.27;1.00;;;;;;;7.47;75.73;97964.31;6252398;28;20234;-43
2023/10/17 16:59:37;;;;;;;2.63;1.00;;;;;;;7.41;75.53;97965.19;6255093;28;20227;-43